createdAt,value
2022-08-22T00:01:49.862Z,92344.88
2022-08-22T00:02:42.775Z,92151.16
2022-08-22T00:02:57.786Z,92341.31
2022-08-22T00:03:07.477Z,92322.97
2022-08-22T00:03:07.585Z,92253.38
2022-08-22T00:05:11.658Z,92350.81
2022-08-22T00:08:40.718Z,92346.28
2022-08-22T00:11:53.763Z,92353.56
2022-08-22T00:15:43.755Z,92344.50
2022-08-22T00:19:13.224Z,92347.88
2022-08-22T00:22:32.190Z,92341.78
2022-08-22T00:25:53.428Z,92343.66
2022-08-22T00:29:10.078Z,92341.69
2022-08-22T00:32:18.976Z,92350.53
2022-08-22T00:35:30.572Z,92355.03
2022-08-22T00:38:39.557Z,92356.31
2022-08-22T00:41:57.372Z,92357.56
2022-08-22T00:45:37.621Z,92352.63
2022-08-22T00:49:12.293Z,92346.94
2022-08-22T00:52:24.709Z,92345.75
2022-08-22T00:55:44.586Z,92351.78
2022-08-22T00:59:23.256Z,92351.97
2022-08-22T01:02:52.846Z,92348.38
2022-08-22T01:06:24.679Z,92354.09
2022-08-22T01:09:41.901Z,92345.91
2022-08-22T01:13:24.507Z,92351.25
2022-08-22T01:16:55.407Z,92347.78
2022-08-22T01:20:12.010Z,92354.00
2022-08-22T01:23:35.986Z,92348.47
2022-08-22T01:26:58.499Z,92336.06
2022-08-22T01:30:17.167Z,92335.72
2022-08-22T01:33:57.602Z,92334.97
2022-08-22T01:37:16.650Z,92342.03
2022-08-22T01:40:58.587Z,92338.84
2022-08-22T01:44:21.591Z,92351.59
2022-08-22T01:47:27.533Z,92349.00
2022-08-22T01:50:42.660Z,92348.38
2022-08-22T01:54:05.194Z,92343.69
2022-08-22T01:57:10.322Z,92334.47
2022-08-22T02:00:19.708Z,92334.13
2022-08-22T02:03:43.735Z,92330.50
2022-08-22T02:06:59.944Z,92329.31
2022-08-22T02:10:05.868Z,92334.56
2022-08-22T02:13:14.720Z,92343.28
2022-08-22T02:16:49.037Z,92335.41
2022-08-22T02:20:20.439Z,92328.75
2022-08-22T02:23:44.986Z,92336.25
2022-08-22T02:27:07.674Z,92339.09
2022-08-22T02:30:26.198Z,92323.53
2022-08-22T02:33:39.060Z,92327.06
2022-08-22T02:36:51.839Z,92322.28
2022-08-22T02:40:14.308Z,92331.31
2022-08-22T02:43:30.042Z,92324.19
2022-08-22T02:46:52.325Z,92335.44
2022-08-22T02:50:24.346Z,92335.63
2022-08-22T02:53:55.379Z,92322.16
2022-08-22T02:57:14.157Z,92306.97
2022-08-22T03:00:31.448Z,92312.50
2022-08-22T03:03:42.589Z,92308.47
2022-08-22T03:07:00.942Z,92320.72
2022-08-22T03:10:19.181Z,92324.03
2022-08-22T03:13:54.150Z,92319.75
2022-08-22T03:17:06.779Z,92315.69
2022-08-22T03:20:37.671Z,92317.50
2022-08-22T03:23:47.155Z,92313.63
2022-08-22T03:27:32.458Z,92318.50
2022-08-22T03:30:46.034Z,92316.22
2022-08-22T03:34:27.838Z,92314.50
2022-08-22T03:37:38.319Z,92329.38
2022-08-22T03:40:53.668Z,92317.53
2022-08-22T03:44:17.983Z,92312.34
2022-08-22T03:47:43.322Z,92314.84
2022-08-22T03:51:23.167Z,92328.22
2022-08-22T03:54:47.117Z,92322.75
2022-08-22T03:58:11.943Z,92325.19
2022-08-22T04:02:02.105Z,92323.78
2022-08-22T04:05:14.700Z,92327.09
2022-08-22T04:08:38.132Z,92328.88
2022-08-22T04:11:54.864Z,92326.19
2022-08-22T04:15:01.162Z,92320.97
2022-08-22T04:18:35.565Z,92333.03
2022-08-22T04:21:59.785Z,92323.19
2022-08-22T04:25:24.243Z,92323.56
2022-08-22T04:28:35.462Z,92315.03
2022-08-22T04:31:47.037Z,92316.66
2022-08-22T04:34:52.904Z,92314.69
2022-08-22T04:38:05.215Z,92326.03
2022-08-22T04:41:25.676Z,92313.03
2022-08-22T04:44:34.335Z,92324.28
2022-08-22T04:47:43.887Z,92328.88
2022-08-22T04:51:03.730Z,92318.59
2022-08-22T04:54:43.901Z,92333.38
2022-08-22T04:57:53.385Z,92332.59
2022-08-22T05:01:08.551Z,92327.75
2022-08-22T05:04:21.586Z,92317.44
2022-08-22T05:07:38.342Z,92326.41
2022-08-22T05:10:46.937Z,92325.31
2022-08-22T05:13:59.067Z,92333.69
2022-08-22T05:17:04.958Z,92340.06
2022-08-22T05:20:13.349Z,92333.94
2022-08-22T05:23:27.923Z,92324.00
2022-08-22T05:26:38.679Z,92334.06
2022-08-22T05:29:46.352Z,92339.03
2022-08-22T05:33:11.528Z,92331.41
2022-08-22T05:36:17.461Z,92334.22
2022-08-22T05:39:25.355Z,92331.00
2022-08-22T05:42:34.527Z,92323.06
2022-08-22T05:45:40.299Z,92335.13
2022-08-22T05:48:59.648Z,92336.84
2022-08-22T05:52:20.902Z,92340.34
2022-08-22T05:55:50.519Z,92339.84
2022-08-22T05:59:08.432Z,92336.63
2022-08-22T06:02:24.456Z,92331.03
2022-08-22T06:05:31.655Z,92329.91
2022-08-22T06:08:40.639Z,92335.09
2022-08-22T06:11:55.978Z,92328.50
2022-08-22T06:15:20.903Z,92328.97
2022-08-22T06:18:27.397Z,92324.66
2022-08-22T06:21:37.186Z,92320.47
2022-08-22T06:24:42.802Z,92318.88
2022-08-22T06:27:49.191Z,92318.00
2022-08-22T06:30:54.809Z,92319.19
2022-08-22T06:34:16.879Z,92317.25
2022-08-22T06:37:28.953Z,92306.09
2022-08-22T06:40:32.668Z,92304.06
2022-08-22T06:43:43.787Z,92316.09
2022-08-22T06:46:48.589Z,92310.50
2022-08-22T06:49:57.766Z,92311.91
2022-08-22T06:53:16.155Z,92307.25
2022-08-22T06:56:26.005Z,92315.16
2022-08-22T06:59:32.304Z,92308.38
2022-08-22T07:03:01.212Z,92313.47
2022-08-22T07:06:05.371Z,92306.72
2022-08-22T07:09:26.523Z,92305.69
2022-08-22T07:12:33.555Z,92305.09
2022-08-22T07:15:41.092Z,92303.13
2022-08-22T07:18:51.595Z,92304.03
2022-08-22T07:21:55.636Z,92297.56
2022-08-22T07:25:05.317Z,92301.41
2022-08-22T07:28:51.186Z,92303.53
2022-08-22T07:32:03.906Z,92304.34
2022-08-22T07:35:13.980Z,92299.00
2022-08-22T07:38:35.688Z,92297.00
2022-08-22T07:42:00.291Z,92303.97
2022-08-22T07:45:47.578Z,92299.38
2022-08-22T07:49:09.889Z,92295.03
2022-08-22T07:52:14.606Z,92301.63
2022-08-22T07:55:23.939Z,92297.75
2022-08-22T07:58:30.415Z,92300.81
2022-08-22T08:01:34.784Z,92298.91
2022-08-22T08:04:40.626Z,92300.50
2022-08-22T08:07:46.295Z,92301.47
2022-08-22T08:10:51.842Z,92300.69
2022-08-22T08:14:01.388Z,92299.69
2022-08-22T08:17:11.202Z,92303.88
2022-08-22T08:20:19.116Z,92287.69
2022-08-22T08:23:23.983Z,92297.72
2022-08-22T08:27:01.953Z,92298.94
2022-08-22T08:30:19.983Z,92306.00
2022-08-22T08:33:26.813Z,92295.94
2022-08-22T08:36:45.234Z,92296.69
2022-08-22T08:39:55.320Z,92296.13
2022-08-22T08:43:30.460Z,92300.56
2022-08-22T08:46:33.575Z,92300.81
2022-08-22T08:49:43.516Z,92299.16
2022-08-22T08:53:10.500Z,92304.91
2022-08-22T08:56:31.113Z,92309.53
2022-08-22T08:59:48.017Z,92315.72
2022-08-22T09:03:31.099Z,92317.22
2022-08-22T09:06:52.700Z,92317.75
2022-08-22T09:10:21.381Z,92318.75
2022-08-22T09:13:42.259Z,92325.81
2022-08-22T09:17:28.082Z,92319.31
2022-08-22T09:21:08.444Z,92325.38
2022-08-22T09:24:45.288Z,92330.28
2022-08-22T09:28:01.118Z,92323.88
2022-08-22T09:31:21.961Z,92326.28
2022-08-22T09:35:01.165Z,92323.28
2022-08-22T09:38:48.876Z,92328.06
2022-08-22T09:42:18.129Z,92331.25
2022-08-22T09:45:39.897Z,92340.41
2022-08-22T09:48:53.568Z,92332.19
2022-08-22T09:52:34.133Z,92343.97
2022-08-22T09:55:51.396Z,92346.25
2022-08-22T09:59:09.832Z,92342.69
2022-08-22T10:02:36.496Z,92347.00
2022-08-22T10:05:54.932Z,92344.97
2022-08-22T10:09:06.194Z,92352.97
2022-08-22T10:12:18.223Z,92355.97
2022-08-22T10:15:43.598Z,92355.44
2022-08-22T10:19:14.011Z,92362.44
2022-08-22T10:22:39.941Z,92368.28
2022-08-22T10:25:50.642Z,92372.88
2022-08-22T10:29:26.957Z,92371.13
2022-08-22T10:32:48.743Z,92388.56
2022-08-22T10:35:52.086Z,92386.56
2022-08-22T10:39:01.345Z,92392.53
2022-08-22T10:42:35.435Z,92382.75
2022-08-22T10:45:44.753Z,92402.06
2022-08-22T10:49:05.904Z,92413.88
2022-08-22T10:52:32.950Z,92416.16
2022-08-22T10:55:40.328Z,92425.50
2022-08-22T10:58:56.863Z,92442.00
2022-08-22T11:02:31.419Z,92437.19
2022-08-22T11:05:44.547Z,92456.38
2022-08-22T11:09:01.508Z,92460.72
2022-08-22T11:12:35.454Z,92470.91
2022-08-22T11:15:57.792Z,92476.94
2022-08-22T11:19:15.994Z,92487.19
2022-08-22T11:22:43.587Z,92488.81
2022-08-22T11:26:13.234Z,92498.38
2022-08-22T11:29:25.475Z,92503.91
2022-08-22T11:33:02.178Z,92511.13
2022-08-22T11:36:31.953Z,92517.41
2022-08-22T11:39:40.819Z,92525.66
2022-08-22T11:43:01.021Z,92531.53
2022-08-22T11:46:30.696Z,92530.97
2022-08-22T11:50:13.303Z,92534.38
2022-08-22T11:53:33.502Z,92533.00
2022-08-22T11:56:45.604Z,92546.63
2022-08-22T12:00:13.532Z,92547.84
2022-08-22T12:03:38.267Z,92550.94
2022-08-22T12:06:54.529Z,92558.59
2022-08-22T12:10:07.694Z,92566.38
2022-08-22T12:13:38.838Z,92568.81
2022-08-22T12:17:12.927Z,92577.03
2022-08-22T12:20:46.655Z,92582.78
2022-08-22T12:24:20.882Z,92592.34
2022-08-22T12:27:29.124Z,92588.81
2022-08-22T12:31:05.171Z,92595.38
2022-08-22T12:34:27.600Z,92602.44
2022-08-22T12:37:53.888Z,92606.22
2022-08-22T12:41:28.445Z,92601.78
2022-08-22T12:45:08.121Z,92617.34
2022-08-22T12:48:43.153Z,92613.66
2022-08-22T12:51:59.854Z,92623.84
2022-08-22T12:55:34.781Z,92626.56
2022-08-22T12:58:43.760Z,92631.22
2022-08-22T13:01:50.659Z,92630.06
2022-08-22T13:04:58.945Z,92638.94
2022-08-22T13:08:10.818Z,92641.25
2022-08-22T13:11:16.775Z,92644.84
2022-08-22T13:14:28.630Z,92645.09
2022-08-22T13:17:33.095Z,92643.84
2022-08-22T13:20:43.357Z,92652.22
2022-08-22T13:23:51.671Z,92658.59
2022-08-22T13:27:02.931Z,92657.13
2022-08-22T13:30:17.176Z,92667.72
2022-08-22T13:33:27.878Z,92672.41
2022-08-22T13:36:41.767Z,92671.09
2022-08-22T13:40:01.853Z,92679.19
2022-08-22T13:43:11.796Z,92678.03
2022-08-22T13:46:17.030Z,92677.63
2022-08-22T13:49:35.946Z,92690.34
2022-08-22T13:52:52.431Z,92685.97
2022-08-22T13:56:15.436Z,92698.72
2022-08-22T13:59:52.463Z,92697.56
2022-08-22T14:03:05.707Z,92697.22
2022-08-22T14:06:37.847Z,92699.19
2022-08-22T14:09:54.541Z,92697.97
2022-08-22T14:12:57.662Z,92692.78
2022-08-22T14:16:07.592Z,92696.16
2022-08-22T14:19:24.368Z,92705.03
2022-08-22T14:22:36.087Z,92701.94
2022-08-22T14:25:42.192Z,92707.44
2022-08-22T14:28:45.772Z,92707.66
2022-08-22T14:32:06.002Z,92706.09
2022-08-22T14:35:34.567Z,92709.94
2022-08-22T14:38:46.264Z,92710.50
2022-08-22T14:42:00.324Z,92713.63
2022-08-22T14:45:19.964Z,92723.72
2022-08-22T14:48:33.176Z,92721.78
2022-08-22T14:51:38.680Z,92723.97
2022-08-22T14:54:42.541Z,92728.81
2022-08-22T14:57:57.955Z,92731.59
2022-08-22T15:01:12.186Z,92737.66
2022-08-22T15:04:44.847Z,92735.09
2022-08-22T15:08:02.411Z,92735.84
2022-08-22T15:11:14.177Z,92734.69
2022-08-22T15:14:25.149Z,92739.41
2022-08-22T15:17:50.982Z,92747.50
2022-08-22T15:21:08.727Z,92751.00
2022-08-22T15:24:15.464Z,92751.19
2022-08-22T15:27:22.015Z,92758.50
2022-08-22T15:30:33.579Z,92762.53
2022-08-22T15:33:46.597Z,92771.09
2022-08-22T15:37:19.172Z,92773.72
2022-08-22T15:40:44.419Z,92779.03
2022-08-22T15:43:52.643Z,92783.56
2022-08-22T15:47:35.015Z,92788.78
2022-08-22T15:51:01.649Z,92788.09
2022-08-22T15:54:25.394Z,92786.72
2022-08-22T15:57:30.921Z,92789.25
2022-08-22T16:00:36.090Z,92789.09
2022-08-22T16:04:14.641Z,92786.25
2022-08-22T16:07:41.560Z,92782.09
2022-08-22T16:10:54.194Z,92780.00
2022-08-22T16:14:19.021Z,92790.28
2022-08-22T16:17:30.583Z,92792.78
2022-08-22T16:20:33.551Z,92796.66
2022-08-22T16:23:51.938Z,92801.22
2022-08-22T16:26:55.112Z,92798.03
2022-08-22T16:30:09.241Z,92798.16
2022-08-22T16:33:28.216Z,92800.25
2022-08-22T16:37:00.820Z,92802.16
2022-08-22T16:40:07.668Z,92808.22
2022-08-22T16:43:18.536Z,92804.41
2022-08-22T16:46:44.556Z,92806.56
2022-08-22T16:49:50.288Z,92808.09
2022-08-22T16:53:05.406Z,92805.00
2022-08-22T16:56:40.336Z,92807.84
2022-08-22T17:00:12.035Z,92808.72
2022-08-22T17:03:21.096Z,92805.56
2022-08-22T17:06:45.691Z,92801.69
2022-08-22T17:10:12.201Z,92809.66
2022-08-22T17:13:15.564Z,92805.03
2022-08-22T17:16:31.626Z,92807.59
2022-08-22T17:20:21.765Z,92802.88
2022-08-22T17:24:32.090Z,92811.41
2022-08-22T17:27:41.507Z,92805.47
2022-08-22T17:31:12.637Z,92808.84
2022-08-22T17:34:29.496Z,92810.91
2022-08-22T17:37:38.318Z,92817.03
2022-08-22T17:41:04.521Z,92820.41
2022-08-22T17:44:52.294Z,92823.03
2022-08-22T17:48:13.538Z,92819.13
2022-08-22T17:51:44.325Z,92824.38
2022-08-22T17:55:00.331Z,92823.09
2022-08-22T17:58:31.595Z,92817.84
2022-08-22T18:01:56.873Z,92819.13
2022-08-22T18:05:11.042Z,92819.16
2022-08-22T18:12:05.640Z,92832.53
2022-08-22T18:15:26.691Z,92845.25
2022-08-22T18:18:40.194Z,92841.44
2022-08-22T18:22:10.111Z,92840.16
2022-08-22T18:25:20.030Z,92839.53
2022-08-22T18:28:25.532Z,92840.91
2022-08-22T18:31:41.514Z,92842.22
2022-08-22T18:35:05.865Z,92840.31
2022-08-22T18:38:24.254Z,92839.75
2022-08-22T18:41:46.291Z,92837.94
2022-08-22T18:44:49.309Z,92853.34
2022-08-22T18:47:57.354Z,92843.63
2022-08-22T18:51:22.438Z,92851.06
2022-08-22T18:54:53.713Z,92851.91
2022-08-22T18:57:56.667Z,92854.69
2022-08-22T19:01:42.799Z,92855.56
2022-08-22T19:05:21.080Z,92858.44
2022-08-22T19:08:24.043Z,92864.56
2022-08-22T19:11:49.654Z,92869.94
2022-08-22T19:15:11.412Z,92876.63
2022-08-22T19:18:43.404Z,92870.16
2022-08-22T19:22:21.010Z,92868.22
2022-08-22T19:25:29.382Z,92870.22
2022-08-22T19:28:41.281Z,92884.06
2022-08-22T19:31:50.821Z,92880.75
2022-08-22T19:35:20.416Z,92885.22
2022-08-22T19:38:54.333Z,92892.31
2022-08-22T19:41:58.714Z,92894.84
2022-08-22T19:45:27.061Z,92895.34
2022-08-22T19:48:34.176Z,92890.75
2022-08-22T19:51:37.316Z,92894.69
2022-08-22T19:54:53.684Z,92900.53
2022-08-22T19:58:32.496Z,92893.94
2022-08-22T20:02:05.318Z,92897.88
2022-08-22T20:05:24.278Z,92905.13
2022-08-22T20:08:57.276Z,92903.22
2022-08-22T20:12:24.564Z,92908.53
2022-08-22T20:15:31.003Z,92916.53
2022-08-22T20:19:06.554Z,92906.72
2022-08-22T20:22:31.910Z,92902.81
2022-08-22T20:25:51.205Z,92908.72
2022-08-22T20:28:55.592Z,92901.50
2022-08-22T20:31:59.329Z,92906.13
2022-08-22T20:35:05.542Z,92906.19
2022-08-22T20:38:18.373Z,92906.84
2022-08-22T20:41:56.972Z,92909.53
2022-08-22T20:45:01.493Z,92908.94
2022-08-22T20:48:09.796Z,92906.97
2022-08-22T20:51:18.541Z,92912.97
2022-08-22T20:54:25.254Z,92910.38
2022-08-22T20:57:29.523Z,92914.28
2022-08-22T21:00:41.218Z,92917.59
2022-08-22T21:03:48.300Z,92915.69
2022-08-22T21:07:03.640Z,92920.97
2022-08-22T21:10:38.658Z,92921.06
2022-08-22T21:13:41.689Z,92919.13
2022-08-22T21:16:44.899Z,92925.13
2022-08-22T21:19:48.186Z,92925.16
2022-08-22T21:22:51.750Z,92926.44
2022-08-22T21:26:03.481Z,92923.81
2022-08-22T21:29:21.837Z,92928.38
2022-08-22T21:32:30.642Z,92927.75
2022-08-22T21:35:34.762Z,92929.72
2022-08-22T21:38:39.078Z,92939.56
2022-08-22T21:41:54.106Z,92934.97
2022-08-22T21:45:03.344Z,92935.69
2022-08-22T21:48:44.320Z,92933.66
2022-08-22T21:51:47.494Z,92934.38
2022-08-22T21:54:50.539Z,92933.06
2022-08-22T21:58:36.270Z,92938.91
2022-08-22T22:01:42.758Z,92944.75
2022-08-22T22:04:48.874Z,92963.16
2022-08-22T22:07:52.667Z,92962.47
2022-08-22T22:11:00.136Z,92961.78
2022-08-22T22:14:03.289Z,92970.31
2022-08-22T22:17:06.431Z,92968.31
2022-08-22T22:20:10.099Z,92963.69
2022-08-22T22:23:13.232Z,92979.13
2022-08-22T22:26:16.420Z,92977.97
2022-08-22T22:29:19.550Z,92983.25
2022-08-22T22:32:22.599Z,92992.25
2022-08-22T22:35:25.709Z,92987.00
2022-08-22T22:38:28.794Z,92999.94
2022-08-22T22:41:33.362Z,92999.94
2022-08-22T22:44:36.605Z,93007.94
2022-08-22T22:47:39.911Z,93003.28
2022-08-22T22:50:44.726Z,92997.56
2022-08-22T22:53:48.663Z,93003.69
2022-08-22T22:56:52.758Z,93001.75
2022-08-22T22:59:55.817Z,93004.09
2022-08-22T23:03:03.081Z,93007.41
2022-08-22T23:06:19.008Z,93003.50
2022-08-22T23:09:22.126Z,92998.78
2022-08-22T23:12:41.566Z,93008.34
2022-08-22T23:15:44.562Z,93000.88
2022-08-22T23:18:47.968Z,92994.97
2022-08-22T23:21:52.391Z,92991.69
2022-08-22T23:24:55.536Z,92992.69
2022-08-22T23:27:58.542Z,92998.84
2022-08-22T23:31:35.296Z,92996.00
2022-08-22T23:34:46.509Z,92993.81
2022-08-22T23:37:49.523Z,92992.16
2022-08-22T23:40:52.579Z,92990.63
2022-08-22T23:43:56.432Z,92998.56
2022-08-22T23:47:00.985Z,93008.50
2022-08-22T23:50:05.769Z,93007.56
2022-08-22T23:53:09.437Z,93015.47
2022-08-22T23:56:19.416Z,93021.94
2022-08-22T23:59:30.069Z,93029.25
